Latest Weather Observations for Amberley

IDQ60901

Issued at 5:31 pm EST Saturday 2 July 2016 (issued every 10 minutes, with the page automatically refreshed every 10 minutes)

About weather observations | Map of Brisbane area stations | Latest observations for Brisbane area | Other Formats
Station Details ID: 040004 Name: AMBERLEY AMO Lat: -27.63 Lon: 152.71 Height: 24.2 m
Data from the previous 72 hours. | See also: Recent months at Amberley
Date/Time
EST
Temp
°C
App
Temp
°C
Dew
Point
°C
Rel
Hum
%
Delta-T
°C
Wind Press
QNH
hPa
Press
MSL
hPa
Rain since
9am
mm
Dir  Spd
km/h
Gust
km/h
Spd
kts
Gust
kts
02/05:30pm 13.9 12.5 3.7 50 4.6 CALM 0 0 0 0 1022.9 1022.9 0.0
02/05:00pm 16.7 15.2 3.1 40 6.2 CALM 0 0 0 0 1022.7 1022.7 0.0
02/04:30pm 18.9 17.3 2.2 33 7.6 CALM 0 0 0 0 1022.6 1022.6 0.0
02/04:00pm 19.8 16.7 1.1 28 8.4 N 7 11 4 6 1022.4 1022.4 0.0
02/03:30pm 19.9 16.7 0.6 27 8.6 NW 7 13 4 7 1022.4 1022.4 0.0
02/03:00pm 19.5 16.1 1.6 30 8.1 WNW 9 15 5 8 1022.3 1022.3 0.0
02/02:30pm 20.7 17.7 2.1 29 8.6 WNW 7 13 4 7 1022.4 1022.4 0.0
02/02:00pm 20.2 16.9 2.5 31 8.2 NW 9 15 5 8 1022.4 1022.4 0.0
02/01:30pm 19.6 16.9 2.8 32 7.8 NNW 6 13 3 7 1022.6 1022.6 0.0
02/01:00pm 18.7 15.6 3.5 36 7.1 WNW 9 13 5 7 1022.8 1022.8 0.0
02/12:30pm 18.8 15.5 2.4 33 7.5 W 9 13 5 7 1023.1 1023.1 0.0
02/12:00pm 18.0 15.6 2.4 35 7.1 NW 4 11 2 6 1023.5 1023.5 0.0
02/11:30am 17.4 14.5 1.3 34 7.1 WNW 6 13 3 7 1024.2 1024.2 0.0
02/11:00am 15.8 13.0 2.0 39 6.1 NW 6 11 3 6 1024.7 1024.7 0.0
02/10:30am 15.2 12.7 3.8 46 5.2 W 6 13 3 7 1024.8 1024.8 0.0
02/10:00am 13.8 11.4 4.4 53 4.3 SSW 6 9 3 5 1024.9 1024.9 0.0
02/09:30am 12.6 11.1 5.0 60 3.5 W 2 7 1 4 1025.1 1025.1 0.0
02/09:00am 10.2 8.6 4.6 68 2.5 WSW 2 7 1 4 1025.3 1025.3 0.0
02/08:30am 8.3 7.2 4.9 79 1.5 CALM 0 0 0 0 1025.0 1025.0 0.0
02/08:00am 5.6 4.2 3.7 87 0.8 CALM 0 0 0 0 1024.8 1024.8 0.0
02/07:30am 3.0 1.3 1.7 91 0.5 CALM 0 0 0 0 1024.5 1024.5 0.0
02/07:00am 1.1 -2.1 0.6 96 0.2 SSW 7 7 4 4 1024.1 1024.1 0.0
02/06:30am 2.2 -0.8 1.7 96 0.2 SW 7 9 4 5 1023.9 1023.9 0.0
02/06:00am 1.7 -0.9 1.2 96 0.2 SSE 4 9 2 5 1023.3 1023.3 0.0
02/05:30am 2.4 0.7 1.6 94 0.3 CALM 0 0 0 0 1022.8 1022.8 0.0
02/05:00am 2.6 0.9 1.8 94 0.3 CALM 0 0 0 0 1022.6 1022.6 0.0
02/04:30am 2.8 1.1 1.8 93 0.4 CALM 0 0 0 0 1022.2 1022.2 0.0
02/04:00am 3.8 2.2 2.5 91 0.5 CALM 0 0 0 0 1022.0 1022.0 0.0
02/03:30am 3.5 1.9 2.2 91 0.5 CALM 0 0 0 0 1022.0 1022.0 0.0
02/03:00am 4.2 2.6 2.7 90 0.6 CALM 0 0 0 0 1021.8 1021.8 0.0
02/02:30am 4.6 3.1 3.1 90 0.6 CALM 0 2 0 1 1021.8 1021.8 0.0
02/02:00am 5.0 3.2 3.3 89 0.7 WSW 2 9 1 5 1021.8 1021.8 0.0
02/01:30am 4.9 2.4 3.7 92 0.5 ENE 6 13 3 7 1021.9 1021.9 0.0
02/01:00am 6.8 5.5 4.0 82 1.2 CALM 0 0 0 0 1022.1 1022.1 0.0
02/12:50am 6.4 5.1 4.0 85 1.0 CALM 0 0 0 0 1021.9 1021.9 0.0
02/12:31am 6.0 4.7 3.9 86 0.9 CALM 0 0 0 0 1022.0 1022.0 0.0
02/12:30am 6.1 4.8 4.0 86 0.9 CALM 0 0 0 0 1022.0 1022.0 0.0
02/12:00am 7.8 5.8 4.3 78 1.5 ESE 4 7 2 4 1021.7 1021.7 0.0
 
Date/Time
EST
Temp
°C
App
Temp
°C
Dew
Point
°C
Rel
Hum
%
Delta-T
°C
Wind Press
QNH
hPa
Press
MSL
hPa
Rain since
9am
mm
Dir  Spd
km/h
Gust
km/h
Spd
kts
Gust
kts
01/11:30pm 9.7 7.3 4.3 69 2.4 ESE 6 9 3 5 1021.7 1021.7 0.0
01/11:00pm 9.6 5.5 4.1 68 2.4 NW 15 17 8 9 1021.5 1021.5 0.0
01/10:30pm 11.7 7.6 4.1 59 3.4 WNW 15 19 8 10 1021.6 1021.6 0.0
01/10:00pm 11.8 8.3 3.7 57 3.6 NNW 11 15 6 8 1021.8 1021.8 0.0
01/09:30pm 13.3 9.0 3.2 50 4.5 W 15 17 8 9 1021.7 1021.7 0.0
01/09:00pm 13.3 8.7 3.7 52 4.3 W 17 20 9 11 1021.6 1021.6 0.0
01/08:30pm 13.5 9.6 3.4 50 4.5 NNW 13 15 7 8 1021.3 1021.3 0.0
01/08:00pm 14.7 9.4 2.8 44 5.3 W 20 28 11 15 1020.8 1020.8 0.0
01/07:30pm 15.0 10.4 3.6 46 5.2 WNW 17 22 9 12 1020.2 1020.2 0.0
01/07:00pm 16.1 10.0 2.5 40 6.1 W 24 28 13 15 1019.7 1019.7 0.0
01/06:30pm 16.8 11.4 2.4 38 6.5 WNW 20 28 11 15 1019.6 1019.6 0.0
01/06:00pm 16.9 12.2 3.2 40 6.3 WNW 17 24 9 13 1019.2 1019.2 0.0
01/05:30pm 17.8 11.6 2.4 35 7.0 W 24 32 13 17 1018.6 1018.6 0.0
01/05:00pm 18.7 12.8 2.0 32 7.6 W 22 37 12 20 1018.2 1018.2 0.0
01/04:30pm 19.7 14.3 2.7 32 7.9 WSW 20 32 11 17 1017.7 1017.7 0.0
01/04:00pm 20.7 15.2 2.1 29 8.6 WSW 20 32 11 17 1017.6 1017.6 0.0
01/03:30pm 21.1 14.3 1.1 26 9.1 W 26 37 14 20 1017.4 1017.4 0.0
01/03:00pm 21.6 14.4 1.0 25 9.4 W 28 35 15 19 1017.2 1017.2 0.0
01/02:34pm 21.9 14.7 0.8 24 9.6 W 28 48 15 26 1017.2 1017.2 0.0
01/02:30pm 21.9 15.5 1.2 25 9.5 W 24 33 13 18 1017.2 1017.2 0.0
01/02:00pm 21.6 15.3 1.7 27 9.2 W 24 35 13 19 1017.2 1017.2 0.0
01/01:30pm 21.3 15.5 2.2 28 8.9 W 22 33 12 18 1017.2 1017.2 0.0
01/01:00pm 21.2 13.7 1.3 26 9.1 WNW 30 41 16 22 1017.4 1017.4 0.0
01/12:30pm 21.1 14.8 1.5 27 9.0 W 24 35 13 19 1017.8 1017.8 0.0
01/12:00pm 20.9 15.3 1.4 27 8.9 W 20 35 11 19 1018.5 1018.5 0.0
01/11:30am 20.6 13.6 1.9 29 8.6 WNW 28 39 15 21 1018.9 1018.9 0.0
01/11:00am 19.8 15.1 3.2 33 7.8 W 17 28 9 15 1019.6 1019.6 0.0
01/10:30am 19.2 15.4 5.8 41 6.6 NW 15 22 8 12 1020.1 1020.1 0.0
01/10:00am 18.1 14.2 5.5 43 6.1 NW 15 22 8 12 1020.4 1020.4 0.0
01/09:30am 16.9 13.4 7.0 52 4.9 NW 15 20 8 11 1020.4 1020.4 0.0
01/09:00am 14.1 13.9 9.0 71 2.6 CALM 0 0 0 0 1020.6 1020.6 0.0
01/08:30am 11.5 11.1 9.7 89 0.9 SE 2 6 1 3 1020.6 1020.6 0.0
01/08:00am 9.0 7.8 8.2 95 0.4 S 4 7 2 4 1020.7 1020.7 0.0
01/07:30am 8.1 6.8 7.7 97 0.2 SSW 4 7 2 4 1020.4 1020.4 0.0
01/07:27am 8.0 6.6 7.4 96 0.3 SSW 4 7 2 4 1020.4 1020.4 0.0
01/07:22am 7.4 6.3 6.7 95 0.3 SSW 2 7 1 4 1020.4 1020.4 0.0
01/07:15am 6.8 6.0 6.4 97 0.2 CALM 0 0 0 0 1020.4 1020.4 0.0
01/07:00am 6.5 5.6 6.1 97 0.2 CALM 0 0 0 0 1020.3 1020.3 0.0
01/06:50am 6.5 5.7 6.3 99 0.1 CALM 0 0 0 0 1020.0 1020.0 0.0
01/06:30am 6.2 5.3 6.0 99 0.1 CALM 0 0 0 0 1019.8 1019.8 0.0
01/06:02am 5.9 4.9 5.4 97 0.2 CALM 0 0 0 0 1019.5 1019.5 0.0
01/06:00am 5.8 4.7 5.3 97 0.2 CALM 0 0 0 0 1019.5 1019.5 0.0
01/05:42am 6.2 5.3 6.0 99 0.1 CALM 0 0 0 0 1019.2 1019.2 0.0
01/05:31am 6.4 5.5 6.0 97 0.2 CALM 0 0 0 0 1019.3 1019.3 0.0
01/05:30am 6.4 5.5 6.0 97 0.2 CALM 0 0 0 0 1019.3 1019.3 0.0
01/05:19am 7.4 6.7 7.0 97 0.2 CALM 0 6 0 3 1019.1 1019.1 0.0
01/05:00am 6.2 4.1 5.7 97 0.2 W 6 7 3 4 1019.0 1019.0 0.0
01/04:50am 6.0 5.1 6.0 100 0.0 CALM 0 0 0 0 1018.9 1018.9 0.0
01/04:30am 7.2 5.7 6.8 97 0.2 SW 4 7 2 4 1018.8 1018.8 0.0
01/04:00am 8.2 7.4 8.2 100 0.0 SW 2 9 1 5 1018.9 1018.9 0.0
01/03:30am 8.0 6.6 7.4 96 0.3 SW 4 7 2 4 1018.8 1018.8 0.0
01/03:22am 8.3 6.5 7.9 97 0.2 SSW 7 9 4 5 1018.8 1018.8 0.0
01/03:00am 9.8 8.9 9.2 96 0.3 SSW 4 7 2 4 1018.8 1018.8 0.0
01/02:30am 9.6 9.3 8.8 95 0.4 CALM 0 0 0 0 1018.7 1018.7 0.0
01/02:00am 9.2 8.9 8.6 96 0.3 CALM 0 0 0 0 1018.9 1018.9 0.0
01/01:30am 9.8 9.6 9.2 96 0.3 CALM 0 0 0 0 1019.0 1019.0 0.0
01/01:00am 9.8 9.3 9.2 96 0.3 SSE 2 7 1 4 1019.2 1019.2 0.0
01/12:30am 9.3 9.1 9.1 99 0.1 CALM 0 0 0 0 1019.4 1019.4 0.0
01/12:00am 10.1 10.0 9.3 95 0.4 CALM 0 0 0 0 1019.4 1019.4 0.0
 
Date/Time
EST
Temp
°C
App
Temp
°C
Dew
Point
°C
Rel
Hum
%
Delta-T
°C
Wind Press
QNH
hPa
Press
MSL
hPa
Rain since
9am
mm
Dir  Spd
km/h
Gust
km/h
Spd
kts
Gust
kts
30/11:30pm 9.7 9.5 9.1 96 0.3 CALM 0 0 0 0 1019.3 1019.3 0.0
30/11:00pm 11.2 11.3 10.2 94 0.5 CALM 0 0 0 0 1019.4 1019.4 0.0
30/10:30pm 11.5 11.6 10.3 92 0.6 CALM 0 0 0 0 1019.6 1019.6 0.0
30/10:00pm 11.9 10.8 10.1 89 0.9 WNW 6 13 3 7 1019.8 1019.8 0.0
30/09:30pm 11.5 11.6 10.1 91 0.7 CALM 0 0 0 0 1019.8 1019.8 0.0
30/09:00pm 11.9 10.7 10.3 90 0.8 NW 7 11 4 6 1020.3 1020.3 0.0
30/08:30pm 11.9 12.0 10.3 90 0.8 CALM 0 7 0 4 1020.0 1020.0 0.0
30/08:00pm 14.7 15.1 11.1 79 1.9 CALM 0 2 0 1 1020.6 1020.6 0.0
30/07:30pm 14.2 13.1 10.6 79 1.9 E 7 9 4 5 1020.6 1020.6 0.0
30/07:00pm 14.7 13.7 10.3 75 2.3 E 6 7 3 4 1020.2 1020.2 0.0
30/06:30pm 16.1 14.2 10.6 70 2.9 ENE 11 13 6 7 1019.7 1019.7 0.0
30/06:00pm 17.0 14.7 10.4 65 3.5 NE 13 17 7 9 1019.5 1019.5 0.0
30/05:30pm 17.7 15.7 10.2 61 4.0 NE 11 13 6 7 1019.2 1019.2 0.0
30/05:00pm 18.0 15.7 10.3 60 4.1 NE 13 15 7 8 1019.2 1019.2 0.0
30/04:30pm 19.4 17.0 10.0 54 5.0 NE 13 17 7 9 1019.4 1019.4 0.0
30/04:00pm 20.6 19.0 8.6 46 6.3 N 7 11 4 6 1019.5 1019.5 0.0
30/03:30pm 20.9 18.6 9.0 46 6.3 NNE 11 17 6 9 1019.5 1019.5 0.0
30/03:00pm 21.0 19.3 9.8 48 6.0 N 9 15 5 8 1019.6 1019.6 0.0
30/02:30pm 21.0 19.3 9.8 48 6.0 N 9 13 5 7 1019.9 1019.9 0.0
30/02:00pm 21.0 19.2 9.6 48 6.1 NNE 9 17 5 9 1020.3 1020.3 0.0
30/01:30pm 20.5 19.1 9.4 49 5.9 WNW 7 11 4 6 1020.7 1020.7 0.0
30/01:00pm 20.1 18.2 9.1 49 5.8 N 9 13 5 7 1021.2 1021.2 0.0
30/12:30pm 19.2 17.6 8.1 48 5.7 S 6 11 3 6 1021.9 1021.9 0.0
30/12:00pm 18.6 16.8 7.3 47 5.7 SW 6 11 3 6 1022.6 1022.6 0.0
30/11:30am 17.2 15.1 6.6 49 5.2 SW 7 13 4 7 1023.3 1023.3 0.0
30/11:00am 17.1 15.4 7.5 53 4.8 SW 6 15 3 8 1023.9 1023.9 0.0
30/10:30am 15.3 13.0 7.6 60 3.8 WNW 9 11 5 6 1024.2 1024.2 0.0
30/10:00am 12.8 11.0 7.9 72 2.4 W 7 9 4 5 1024.5 1024.5 0.0
30/09:30am 11.4 9.4 7.2 75 2.0 WNW 7 11 4 6 1024.8 1024.8 0.0
30/09:00am 9.6 7.8 7.0 84 1.2 WNW 6 7 3 4 1024.9 1024.9 0.0
30/08:30am 7.1 6.1 5.8 91 0.6 CALM 0 0 0 0 1024.8 1024.8 0.0
30/08:00am 4.9 3.7 4.7 99 0.1 CALM 0 0 0 0 1024.6 1024.6 0.0
30/07:30am 2.6 0.9 2.1 96 0.2 CALM 0 0 0 0 1024.5 1024.5 0.0
30/07:00am 2.3 0.5 1.5 94 0.3 CALM 0 0 0 0 1024.2 1024.2 0.0
30/06:30am 2.5 0.8 1.7 94 0.3 CALM 0 0 0 0 1024.0 1024.0 0.0
30/06:00am 2.2 0.5 1.7 96 0.2 CALM 0 0 0 0 1023.7 1023.7 0.0
30/05:30am 2.3 0.6 1.8 96 0.2 CALM 0 0 0 0 1023.6 1023.6 0.0
30/05:00am 2.8 1.2 2.3 96 0.2 CALM 0 0 0 0 1023.6 1023.6 0.0
30/04:47am 2.8 1.2 2.5 98 0.1 CALM 0 0 0 0 1023.6 1023.6 0.0
30/04:30am 2.4 0.7 1.9 96 0.2 CALM 0 0 0 0 1023.6 1023.6 0.0
30/04:22am 2.4 0.7 1.9 96 0.2 CALM 0 0 0 0 1023.7 1023.7 0.0
30/04:00am 3.2 1.6 2.7 96 0.2 CALM 0 0 0 0 1023.7 1023.7 0.0
30/03:30am 3.3 1.7 2.5 94 0.3 CALM 0 0 0 0 1023.7 1023.7 0.0
30/03:00am 3.5 1.9 2.7 94 0.3 CALM 0 0 0 0 1023.7 1023.7 0.0
30/02:30am 4.4 2.9 3.2 92 0.5 CALM 0 0 0 0 1024.1 1024.1 0.0
30/02:08am 4.3 2.6 4.1 99 0.1 NNW 2 6 1 3 1024.3 1024.3 0.0
30/02:00am 4.3 2.2 3.8 97 0.2 NW 4 7 2 4 1024.4 1024.4 0.0
30/01:49am 3.9 2.5 3.7 99 0.1 CALM 0 0 0 0 1024.4 1024.4 0.0
30/01:30am 4.9 3.6 4.2 95 0.3 CALM 0 0 0 0 1024.6 1024.6 0.0
30/01:00am 4.6 3.3 4.1 97 0.2 CALM 0 6 0 3 1025.1 1025.1 0.0
30/12:30am 5.2 3.9 4.3 94 0.4 CALM 0 0 0 0 1025.1 1025.1 0.0
30/12:00am 5.2 4.0 4.5 95 0.3 CALM 0 0 0 0 1025.0 1025.0 0.0
 
Date/Time
EST
Temp
°C
App
Temp
°C
Dew
Point
°C
Rel
Hum
%
Delta-T
°C
Wind Press
QNH
hPa
Press
MSL
hPa
Rain since
9am
mm
Dir  Spd
km/h
Gust
km/h
Spd
kts
Gust
kts
29/11:30pm 5.9 3.5 5.2 95 0.3 NW 7 9 4 5 1025.1 1025.1 0.0
29/11:00pm 6.0 5.0 5.5 97 0.2 CALM 0 0 0 0 1025.2 1025.2 0.0
29/10:30pm 6.1 5.0 5.2 94 0.4 CALM 0 0 0 0 1025.3 1025.3 0.0
29/10:00pm 6.6 5.6 5.5 93 0.5 CALM 0 0 0 0 1025.4 1025.4 0.0
29/09:30pm 7.6 6.8 6.5 93 0.5 CALM 0 0 0 0 1025.3 1025.3 0.0
29/09:00pm 8.0 6.7 6.2 88 0.8 NW 2 7 1 4 1025.4 1025.4 0.0
29/08:30pm 8.1 5.7 6.8 91 0.6 NW 9 11 5 6 1025.2 1025.2 0.0
29/08:00pm 8.9 8.2 7.0 88 0.9 CALM 0 0 0 0 1025.4 1025.4 0.0
29/07:30pm 9.7 8.3 7.4 85 1.1 SSW 4 7 2 4 1025.3 1025.3 0.0
29/07:00pm 10.3 9.6 7.1 80 1.5 CALM 0 6 0 3 1025.1 1025.1 0.0
29/06:30pm 12.1 11.5 7.3 72 2.3 CALM 0 0 0 0 1024.9 1024.9 0.0
29/06:00pm 12.9 12.2 7.1 68 2.8 CALM 0 0 0 0 1024.6 1024.6 0.0

Latest Capital City Observations: Canberra | Sydney | Melbourne | Brisbane | Adelaide | Perth | Hobart | Darwin

Other Formats:

Comma delimited format used in spreadsheet applications
http://www.bom.gov.au/fwo/IDQ60901/IDQ60901.94568.axf

JavaScript Object Notation format (JSON) in row-major order
http://www.bom.gov.au/fwo/IDQ60901/IDQ60901.94568.json